KLWT/LWT METAR and TAF weather

Enter ICAO airport designator
Station Type Date Time Source
KLWT METAR 2020/04/07 07:54 UTC NOAA

KLWT 070754Z AUTO 00000KT 10SM CLR 00/M05 A2974 RMK AO2 SLP073 T00001050


Station Type Date Time Source
KLWT Decoded METAR 2020/04/07 07:54 UTC NOAA

LEWISTOWN MUNICIPAL AIRPORT , MT, United States (KLWT) 47-03N 109-27W
Apr 07, 2020 - 03:54 AM EDT / 2020.04.07 0754 UTC
Wind: Calm:0
Visibility: 10 mile(s):0
Sky conditions: clear
Temperature: 32.0 F (0.0 C)
Dew Point: 23.0 F (-5.0 C)
Relative Humidity: 69%
Pressure (altimeter): 29.74 in. Hg (1007 hPa)
ob: KLWT 070754Z AUTO 00000KT 10SM CLR 00/M05 A2974 RMK AO2 SLP073 T00001050
cycle: 8

Station Type Date Time Source
KLWT TAF 2020/04/07 06:48 UTC NOAA

TAF KLWT 070546Z 0706/0806 22007KT P6SM FEW200
FM070900 23009KT P6SM FEW250 WS020/28035KT
FM071500 25011G19KT P6SM FEW035
FM071700 29015G25KT P6SM SKC
FM080400 32011KT P6SM SCT100

Example: see airport list